Johnson Valley, California
Current Conditions -  °F | °C
As of 4:56 PM on Friday 24 Oct 2014 (Local Time) from KNXP Reporting Station
Clear Clear  
Wind Chill: 88°   Ceiling: Unl
Heat Index: 88°   Visibility: 10mi
Dew Point: 40°   Wind: 12mph
Humidity: 18%   Direction: 180°S
Pressure: 30.02"   Gusts: 24mph
Location:  34.4465°N, 116.513°W
Report Text: KNXP 242356Z 18010G21KT 140V230 10SM CLR 31/04 A3002 RMK AO2 SLP133 T03110044 10322 20256 56012
Loading
Personal Weather Stations






























Interactive Weather Map
Tropical Storm Tracking
New forecast layout! Learn more

10-Day Weather Forecast

Advertisements
Track Severe Weather on mobile